Time;durP1;ratioP1;P1;durP2;ratioP2;P2;SDS_P1;SDS_P2;PMS_P1;PMS_P2;Temp;Humidity;BMP_temperature;BMP_pressure;BME280_temperature;BME280_humidity;BME280_pressure;Samples;Min_cycle;Max_cycle;Signal;HPM_P1;HPM_P2
2023/10/15 00:01:08;;;;;;;;;;;;;;;11.18;54.90;101720.94;4950811;28;124061;-79
2023/10/15 00:03:35;;;;;;;;;;;;;;;11.19;54.85;101722.69;4951258;28;115819;-79
2023/10/15 00:06:03;;;;;;;;;;;;;;;11.19;55.00;101722.69;4948804;28;114095;-79
2023/10/15 00:08:30;;;;;;;;;;;;;;;11.22;54.87;101732.31;4963199;28;123345;-79
2023/10/15 00:10:58;;;;;;;;;;;;;;;11.24;54.91;101791.47;4951375;28;124484;-79
2023/10/15 00:13:26;;;;;;;;;;;;;;;11.25;54.93;101785.25;4954355;28;113670;-79
2023/10/15 00:15:56;;;;;;;;;;;;;;;11.23;54.77;101755.28;4951063;28;113410;-78
2023/10/15 00:18:23;;;;;;;;;;;;;;;11.23;55.05;101781.78;4942171;28;124420;-79
2023/10/15 00:20:53;;;;;;;;;;;;;;;11.27;55.03;101784.28;4950926;28;124085;-79
2023/10/15 00:23:20;;;;;;;;;;;;;;;11.32;55.23;101792.09;4951123;28;114143;-79
2023/10/15 00:25:47;;;;;;;;;;;;;;;11.36;54.99;101788.44;4946547;28;114262;-78
2023/10/15 00:28:15;;;;;;;;;;;;;;;11.41;55.01;101778.50;4950478;28;124175;-78
2023/10/15 00:30:44;;;;;;;;;;;;;;;11.45;55.13;101774.84;4935060;28;123152;-79
2023/10/15 00:33:12;;;;;;;;;;;;;;;11.53;55.13;101773.69;4942991;28;113538;-79
2023/10/15 00:35:44;;;;;;;;;;;;;;;11.58;55.07;101782.38;4950894;28;112825;-79
2023/10/15 00:38:19;;;;;;;;;;;;;;;11.63;54.88;101773.34;4942466;28;124406;-79
2023/10/15 00:40:51;;;;;;;;;;;;;;;11.66;55.09;101770.59;4947108;28;124920;-80
2023/10/15 00:43:20;;;;;;;;;;;;;;;11.71;54.93;101773.06;4944011;28;115553;-78
2023/10/15 00:45:48;;;;;;;;;;;;;;;11.74;54.90;101767.66;4925392;28;115489;-79
2023/10/15 00:48:24;;;;;;;;;;;;;;;11.77;55.03;101767.56;4947729;28;122993;-79
2023/10/15 00:50:51;;;;;;;;;;;;;;;11.80;54.84;101772.75;4934905;28;124316;-78
2023/10/15 00:53:24;;;;;;;;;;;;;;;11.83;54.85;101772.66;4930524;28;113595;-79
2023/10/15 00:56:01;;;;;;;;;;;;;;;11.87;54.96;101773.41;4939864;28;113388;-79
2023/10/15 00:58:37;;;;;;;;;;;;;;;11.90;54.88;101778.63;4947893;28;124575;-79
2023/10/15 01:01:20;;;;;;;;;;;;;;;11.92;54.87;101767.97;4948451;28;124090;-79
2023/10/15 01:03:52;;;;;;;;;;;;;;;11.93;54.81;101767.91;4947548;28;114524;-80
2023/10/15 01:06:29;;;;;;;;;;;;;;;11.94;54.92;101753.75;4928852;28;113058;-78
2023/10/15 01:08:58;;;;;;;;;;;;;;;11.95;54.89;101751.94;4944724;28;124106;-79
2023/10/15 01:11:28;;;;;;;;;;;;;;;12.00;54.95;101752.66;4948041;28;123716;-79
2023/10/15 01:13:57;;;;;;;;;;;;;;;12.02;54.93;101759.63;4938857;28;114476;-79
2023/10/15 01:16:27;;;;;;;;;;;;;;;12.05;54.96;101755.97;4950551;28;113606;-79
2023/10/15 01:19:15;;;;;;;;;;;;;;;12.06;54.77;101758.59;4954479;28;123713;-79
2023/10/15 01:21:52;;;;;;;;;;;;;;;12.09;54.88;101757.59;4950119;28;123280;-80
2023/10/15 01:24:20;;;;;;;;;;;;;;;12.11;54.81;101755.78;4946605;28;114268;-80
2023/10/15 01:27:30;;;;;;;;;;;;;;;12.11;54.73;101766.41;4956326;28;112925;-80
2023/10/15 01:29:40;;;;;;;;;;;;;;;12.10;54.72;101775.28;4946435;28;124334;-79
2023/10/15 01:32:11;;;;;;;;;;;;;;;12.08;54.71;101785.09;4915548;28;124061;-79
2023/10/15 01:34:41;;;;;;;;;;;;;;;12.08;54.75;101777.13;4949520;28;115220;-80
2023/10/15 01:39:53;;;;;;;;;;;;;;;12.04;54.84;101762.22;4945046;28;122918;-81
2023/10/15 01:42:32;;;;;;;;;;;;;;;12.04;54.71;101759.56;4953058;28;122888;-79
2023/10/15 01:50:23;;;;;;;;;;;;;;;12.03;54.79;101757.81;4948149;28;123185;-79
2023/10/15 01:53:01;;;;;;;;;;;;;;;12.03;54.78;101755.16;4947488;28;124573;-81
2023/10/15 01:55:29;;;;;;;;;;;;;;;12.02;54.87;101750.81;4954951;28;115450;-79
2023/10/15 01:58:00;;;;;;;;;;;;;;;12.00;54.76;101757.97;4942816;28;113517;-79
2023/10/15 02:03:06;;;;;;;;;;;;;;;11.97;54.70;101747.44;4948191;28;123191;-79
2023/10/15 02:05:42;;;;;;;;;;;;;;;11.96;54.77;101735.06;4944117;28;114379;-79
2023/10/15 02:08:13;;;;;;;;;;;;;;;11.95;54.64;101733.34;4947137;28;114591;-78
2023/10/15 02:10:46;;;;;;;;;;;;;;;11.94;54.78;101731.59;4944410;28;123382;-79
2023/10/15 02:13:16;;;;;;;;;;;;;;;11.91;54.79;101734.41;4953535;28;124181;-79
2023/10/15 02:15:44;;;;;;;;;;;;;;;11.90;54.81;101740.59;4940118;28;115298;-79
2023/10/15 02:18:14;;;;;;;;;;;;;;;11.88;54.89;101737.97;4953091;28;114128;-79
2023/10/15 02:20:46;;;;;;;;;;;;;;;11.85;54.84;101733.66;4934715;28;124012;-79
2023/10/15 02:23:18;;;;;;;;;;;;;;;11.82;54.75;101731.09;4953345;28;124091;-79
2023/10/15 02:25:58;;;;;;;;;;;;;;;11.79;54.72;101739.19;4948057;28;116343;-79
2023/10/15 02:28:27;;;;;;;;;;;;;;;11.77;54.87;101741.03;4947410;28;114556;-80
2023/10/15 02:33:38;;;;;;;;;;;;;;;11.75;54.87;101758.78;4950493;28;123943;-79
2023/10/15 02:36:16;;;;;;;;;;;;;;;11.74;54.78;101778.28;4950913;28;113746;-79
2023/10/15 02:38:52;;;;;;;;;;;;;;;11.72;54.94;101780.13;4964553;28;114166;-79
2023/10/15 02:41:31;;;;;;;;;;;;;;;11.71;54.87;101770.41;4939374;28;122171;-79
2023/10/15 02:43:58;;;;;;;;;;;;;;;11.67;54.91;101776.75;4966644;28;124560;-79
2023/10/15 02:46:36;;;;;;;;;;;;;;;11.65;54.98;101799.84;4952940;28;115226;-79
2023/10/15 02:49:07;;;;;;;;;;;;;;;11.63;54.90;101785.75;4941840;28;113463;-79
2023/10/15 02:51:35;;;;;;;;;;;;;;;11.63;55.18;101791.06;4937613;28;124254;-79
2023/10/15 02:54:18;;;;;;;;;;;;;;;11.63;55.14;101791.06;4932597;28;123465;-79
2023/10/15 02:56:45;;;;;;;;;;;;;;;11.65;55.18;101794.53;4958661;28;114142;-79
2023/10/15 02:59:16;;;;;;;;;;;;;;;11.67;55.11;101798.00;4934671;28;113459;-79
2023/10/15 03:01:46;;;;;;;;;;;;;;;11.68;55.15;101789.13;4950400;28;123350;-79
2023/10/15 03:04:32;;;;;;;;;;;;;;;11.69;55.02;101788.19;4949564;28;124591;-79
2023/10/15 03:07:17;;;;;;;;;;;;;;;11.67;55.10;101777.63;4948015;28;113536;-79
2023/10/15 03:09:44;;;;;;;;;;;;;;;11.67;55.16;101776.75;4953302;28;113518;-79
2023/10/15 03:12:14;;;;;;;;;;;;;;;11.68;55.24;101773.19;4949132;28;123105;-79
2023/10/15 03:14:41;;;;;;;;;;;;;;;11.71;55.30;101778.38;4933186;28;124515;-78
2023/10/15 03:17:14;;;;;;;;;;;;;;;11.73;55.35;101768.56;4950784;28;116346;-79
2023/10/15 03:19:44;;;;;;;;;;;;;;;11.74;55.05;101772.13;4948457;28;115339;-79
2023/10/15 03:22:12;;;;;;;;;;;;;;;11.70;55.11;101760.75;4946450;28;123487;-79
2023/10/15 03:24:43;;;;;;;;;;;;;;;11.68;55.23;101747.53;4943869;28;123821;-79
2023/10/15 03:27:16;;;;;;;;;;;;;;;11.68;55.22;101736.06;4931799;28;114263;-79
2023/10/15 03:29:43;;;;;;;;;;;;;;;11.67;55.20;101729.00;4931608;28;113667;-79
2023/10/15 03:32:12;;;;;;;;;;;;;;;11.66;55.11;101733.44;4948755;28;124560;-79
2023/10/15 03:34:42;;;;;;;;;;;;;;;11.67;55.21;101744.91;4933363;28;123081;-79
2023/10/15 03:37:13;;;;;;;;;;;;;;;11.68;55.23;101754.63;4943185;28;115540;-79
2023/10/15 03:42:09;;;;;;;;;;;;;;;11.66;55.25;101727.28;4950962;28;124520;-79
2023/10/15 03:44:38;;;;;;;;;;;;;;;11.65;55.16;101717.56;4951908;28;124467;-79
2023/10/15 03:47:05;;;;;;;;;;;;;;;11.63;55.26;101703.50;4944508;28;114512;-79
2023/10/15 03:49:32;;;;;;;;;;;;;;;11.61;55.20;101737.19;4951179;28;113798;-79
2023/10/15 03:51:59;;;;;;;;;;;;;;;11.58;55.29;101742.59;4947024;28;124368;-79
2023/10/15 03:54:26;;;;;;;;;;;;;;;11.57;55.14;101748.81;4950837;28;123820;-78
2023/10/15 03:56:53;;;;;;;;;;;;;;;11.53;55.34;101747.16;4953788;28;113691;-78
2023/10/15 03:59:20;;;;;;;;;;;;;;;11.49;55.33;101757.91;4941680;28;113216;-79
2023/10/15 04:01:49;;;;;;;;;;;;;;;11.48;55.31;101761.47;4945418;28;124409;-78
2023/10/15 04:04:16;;;;;;;;;;;;;;;11.47;55.26;101772.13;4936046;28;125189;-78
2023/10/15 04:07:27;;;;;;;;;;;;;;;11.46;55.53;101767.75;4934598;28;114257;-79
2023/10/15 04:09:34;;;;;;;;;;;;;;;11.43;55.42;101758.13;4945856;28;114595;-79
2023/10/15 04:12:06;;;;;;;;;;;;;;;11.43;55.43;101768.75;4955538;28;123269;-79
2023/10/15 04:14:34;;;;;;;;;;;;;;;11.41;55.38;101775.84;4938403;28;125141;-79
2023/10/15 04:17:01;;;;;;;;;;;;;;;11.39;55.41;101772.38;4948610;28;114612;-79
2023/10/15 04:19:31;;;;;;;;;;;;;;;11.37;55.41;101768.91;4943007;28;114407;-79
2023/10/15 04:22:14;;;;;;;;;;;;;;;11.38;55.62;101759.19;4947471;28;125112;-79
2023/10/15 04:24:42;;;;;;;;;;;;;;;11.36;55.61;101748.63;4915356;28;124040;-78
2023/10/15 04:27:15;;;;;;;;;;;;;;;11.35;55.49;101746.88;4948855;28;114326;-78
2023/10/15 04:29:50;;;;;;;;;;;;;;;11.34;55.48;101758.44;4948555;28;114626;-78
2023/10/15 04:32:23;;;;;;;;;;;;;;;11.34;55.78;101761.09;4935546;28;124664;-79
2023/10/15 04:34:51;;;;;;;;;;;;;;;11.34;55.57;101763.75;4959179;28;123903;-79
2023/10/15 04:37:20;;;;;;;;;;;;;;;11.34;55.56;101763.75;4930125;28;112629;-79
2023/10/15 04:39:55;;;;;;;;;;;;;;;11.34;55.59;101774.34;4950810;28;113373;-79
2023/10/15 04:42:48;;;;;;;;;;;;;;;11.33;55.59;101775.25;4948911;28;123487;-79
2023/10/15 04:45:23;;;;;;;;;;;;;;;11.33;55.43;101777.91;4955925;28;123996;-79
2023/10/15 04:47:59;;;;;;;;;;;;;;;11.34;55.57;101784.06;4932187;28;97364;-78
2023/10/15 04:50:35;;;;;;;;;;;;;;;11.33;55.57;101787.66;4945046;28;113465;-79
2023/10/15 04:53:48;;;;;;;;;;;;;;;11.32;55.48;101792.09;4956397;28;124363;-79
2023/10/15 04:55:53;;;;;;;;;;;;;;;11.32;55.46;101792.09;4935783;28;124132;-79
2023/10/15 04:58:20;;;;;;;;;;;;;;;11.31;55.60;101803.59;4942108;28;115555;-79
2023/10/15 05:00:48;;;;;;;;;;;;;;;11.30;55.46;101793.91;4933115;28;113501;-79
2023/10/15 05:03:16;;;;;;;;;;;;;;;11.30;55.48;101799.22;4942778;28;123740;-79
2023/10/15 05:05:43;;;;;;;;;;;;;;;11.28;55.65;101796.63;4950613;28;124837;-79
2023/10/15 05:08:11;;;;;;;;;;;;;;;11.29;55.67;101787.75;4933615;28;113667;-79
2023/10/15 05:10:44;;;;;;;;;;;;;;;11.31;55.65;101782.41;4945821;28;113663;-79
2023/10/15 05:13:13;;;;;;;;;;;;;;;11.33;55.68;101772.59;4949143;28;124382;-79
2023/10/15 05:15:44;;;;;;;;;;;;;;;11.35;55.56;101775.22;4932826;28;124927;-79
2023/10/15 05:18:18;;;;;;;;;;;;;;;11.35;55.62;101760.16;4950790;28;114681;-79
2023/10/15 05:20:47;;;;;;;;;;;;;;;11.35;55.51;101761.94;4919873;28;114212;-79
2023/10/15 05:23:15;;;;;;;;;;;;;;;11.35;55.70;101770.75;4956545;28;124683;-79
2023/10/15 05:25:42;;;;;;;;;;;;;;;11.32;55.60;101765.56;4936723;28;124612;-79
2023/10/15 05:28:14;;;;;;;;;;;;;;;11.32;55.46;101760.28;4950991;28;115219;-79
2023/10/15 05:30:42;;;;;;;;;;;;;;;11.29;55.47;101752.41;4951441;28;113540;-80
2023/10/15 05:33:10;;;;;;;;;;;;;;;11.24;55.52;101757.00;4950197;28;125601;-79
2023/10/15 05:35:37;;;;;;;;;;;;;;;11.20;55.49;101758.88;4955315;28;122474;-79
2023/10/15 05:38:08;;;;;;;;;;;;;;;11.17;55.52;101771.34;4945190;28;114430;-79
2023/10/15 05:40:36;;;;;;;;;;;;;;;11.14;55.57;101766.19;4945717;28;114213;-79
2023/10/15 05:43:07;;;;;;;;;;;;;;;11.13;55.71;101769.72;4917221;28;124120;-79
2023/10/15 05:45:34;;;;;;;;;;;;;;;11.08;55.55;101762.81;4939887;28;125389;-79
2023/10/15 05:48:01;;;;;;;;;;;;;;;11.06;55.65;101775.25;4918170;28;114183;-79
2023/10/15 05:50:28;;;;;;;;;;;;;;;11.04;55.38;101777.06;4935631;28;113792;-79
2023/10/15 05:52:55;;;;;;;;;;;;;;;11.03;55.45;101775.31;4936123;28;123424;-79
2023/10/15 05:55:22;;;;;;;;;;;;;;;11.02;55.56;101772.72;4945061;28;124228;-79
2023/10/15 05:57:49;;;;;;;;;;;;;;;11.00;55.55;101786.06;4948660;28;114344;-79
2023/10/15 06:00:26;;;;;;;;;;;;;;;11.00;55.65;101790.47;4953478;28;113679;-79
2023/10/15 06:02:56;;;;;;;;;;;;;;;10.98;55.51;101793.19;4934632;28;125399;-78
2023/10/15 06:05:24;;;;;;;;;;;;;;;10.97;55.59;101802.03;4952584;28;124616;-79
2023/10/15 06:07:51;;;;;;;;;;;;;;;10.91;55.42;101808.41;4950767;28;114436;-79
2023/10/15 06:10:18;;;;;;;;;;;;;;;10.89;55.63;101809.38;4951937;28;113296;-79
2023/10/15 06:12:45;;;;;;;;;;;;;;;10.86;55.47;101809.44;4949181;28;124014;-79
2023/10/15 06:15:14;;;;;;;;;;;;;;;10.85;55.57;101797.09;4964802;28;124567;-80
2023/10/15 06:17:46;;;;;;;;;;;;;;;10.83;55.66;101799.81;4945283;28;114060;-80
2023/10/15 06:20:14;;;;;;;;;;;;;;;10.84;55.77;101805.97;4947643;28;114144;-80
2023/10/15 06:22:43;;;;;;;;;;;;;;;10.82;55.58;101818.41;4955560;28;123675;-80
2023/10/15 06:25:12;;;;;;;;;;;;;;;10.81;55.67;101838.75;4948881;28;124505;-80
2023/10/15 06:27:39;;;;;;;;;;;;;;;10.82;55.71;101844.91;4957293;28;114240;-80
2023/10/15 06:30:19;;;;;;;;;;;;;;;10.82;55.77;101850.22;4937524;28;115845;-81
2023/10/15 06:32:52;;;;;;;;;;;;;;;10.83;55.79;101859.88;4950828;28;123883;-80
2023/10/15 06:35:21;;;;;;;;;;;;;;;10.83;55.97;101862.53;4951539;28;124296;-80
2023/10/15 06:37:49;;;;;;;;;;;;;;;10.85;55.91;101866.00;4944600;28;114722;-80
2023/10/15 06:40:16;;;;;;;;;;;;;;;10.86;56.08;101862.47;4950222;28;115831;-80
2023/10/15 06:42:53;;;;;;;;;;;;;;;10.88;55.93;101850.88;4952462;28;124149;-80
2023/10/15 06:45:20;;;;;;;;;;;;;;;10.91;55.90;101844.66;4950037;28;122554;-81
2023/10/15 06:47:51;;;;;;;;;;;;;;;10.94;55.98;101849.84;4956792;28;112800;-80
2023/10/15 06:50:20;;;;;;;;;;;;;;;10.97;55.98;101847.09;4960072;28;113896;-80
2023/10/15 06:52:52;;;;;;;;;;;;;;;10.98;55.82;101840.91;4940679;28;124738;-81
2023/10/15 06:55:20;;;;;;;;;;;;;;;11.00;55.99;101839.06;4944534;28;121779;-81
2023/10/15 06:57:48;;;;;;;;;;;;;;;11.02;56.05;101842.53;4962235;28;113435;-81
2023/10/15 07:00:21;;;;;;;;;;;;;;;11.07;56.04;101840.59;4955813;28;115134;-80
2023/10/15 07:02:49;;;;;;;;;;;;;;;11.13;56.11;101843.97;4969370;28;126063;-81
2023/10/15 07:05:18;;;;;;;;;;;;;;;11.18;56.17;101850.00;4958019;28;124581;-81
2023/10/15 07:07:46;;;;;;;;;;;;;;;11.23;56.13;101861.34;4968029;28;112564;-81
2023/10/15 07:10:15;;;;;;;;;;;;;;;11.27;55.97;101862.97;4950335;28;113091;-80
2023/10/15 07:12:45;;;;;;;;;;;;;;;11.32;56.13;101866.34;4935270;28;123456;-81
2023/10/15 07:15:13;;;;;;;;;;;;;;;11.35;56.09;101882.16;4924861;28;123111;-81
2023/10/15 07:17:41;;;;;;;;;;;;;;;11.39;55.98;101883.78;4943548;28;112750;-81
2023/10/15 07:20:32;;;;;;;;;;;;;;;11.43;56.12;101890.75;4944149;28;112903;-81
2023/10/15 07:23:00;;;;;;;;;;;;;;;11.45;56.16;101888.91;4941491;28;124267;-82
2023/10/15 07:25:27;;;;;;;;;;;;;;;11.46;55.88;101901.25;4963293;28;122477;-82
2023/10/15 07:27:56;;;;;;;;;;;;;;;11.48;55.91;101904.72;4955622;28;115239;-81
2023/10/15 07:30:23;;;;;;;;;;;;;;;11.49;55.97;101911.78;4966619;28;115110;-81
2023/10/15 07:32:53;;;;;;;;;;;;;;;11.53;55.87;101916.97;4947658;28;124402;-81
2023/10/15 07:35:21;;;;;;;;;;;;;;;11.55;56.08;101915.16;4955130;28;123661;-81
2023/10/15 07:37:49;;;;;;;;;;;;;;;11.57;55.99;101915.97;4948360;28;114738;-81
2023/10/15 07:40:18;;;;;;;;;;;;;;;11.59;55.99;101916.78;4941397;28;113748;-81
2023/10/15 07:42:50;;;;;;;;;;;;;;;11.64;56.05;101920.16;4919786;28;122345;-81
2023/10/15 07:45:18;;;;;;;;;;;;;;;11.67;56.17;101914.75;4954648;28;124737;-81
2023/10/15 07:47:45;;;;;;;;;;;;;;;11.71;56.16;101927.00;4949936;28;113591;-81
2023/10/15 07:50:13;;;;;;;;;;;;;;;11.76;55.99;101935.69;4957747;28;113743;-82
2023/10/15 07:52:41;;;;;;;;;;;;;;;11.79;56.12;101934.72;4932508;28;123099;-81
2023/10/15 07:55:10;;;;;;;;;;;;;;;11.82;56.07;101932.81;4958969;28;123553;-81
2023/10/15 07:57:37;;;;;;;;;;;;;;;11.84;55.96;101933.63;4944508;28;115598;-81
2023/10/15 08:00:09;;;;;;;;;;;;;;;11.85;56.16;101935.38;4967204;28;111810;-82
2023/10/15 08:02:39;;;;;;;;;;;;;;;11.90;56.20;101937.06;4949829;28;124807;-81
2023/10/15 08:05:06;;;;;;;;;;;;;;;11.93;55.96;101936.97;4955821;28;123098;-82
2023/10/15 08:07:37;;;;;;;;;;;;;;;11.95;56.03;101932.47;4944498;28;113589;-82
2023/10/15 08:10:04;;;;;;;;;;;;;;;11.97;56.09;101944.75;4956502;28;111842;-82
2023/10/15 08:12:31;;;;;;;;;;;;;;;12.00;56.17;101938.50;4949742;28;124765;-82
2023/10/15 08:14:58;;;;;;;;;;;;;;;12.07;56.28;101948.88;4938320;28;123806;-82
2023/10/15 08:17:26;;;;;;;;;;;;;;;12.13;56.19;101953.09;4935439;28;115822;-81
2023/10/15 08:19:53;;;;;;;;;;;;;;;12.18;56.17;101959.09;4947068;28;115127;-82
2023/10/15 08:22:20;;;;;;;;;;;;;;;12.25;56.24;101960.63;4957190;28;124450;-81
2023/10/15 08:24:48;;;;;;;;;;;;;;;12.30;56.08;101967.56;4947503;28;123986;-82
2023/10/15 08:27:15;;;;;;;;;;;;;;;12.33;56.23;101975.44;4955757;28;114027;-81
2023/10/15 08:29:42;;;;;;;;;;;;;;;12.37;56.14;101974.41;4952735;28;113629;-81
2023/10/15 08:32:16;;;;;;;;;;;;;;;12.41;56.09;101968.06;4955498;28;124101;-81
2023/10/15 08:34:47;;;;;;;;;;;;;;;12.46;56.12;101974.09;4939732;28;125741;-82
2023/10/15 08:37:14;;;;;;;;;;;;;;;12.50;55.94;101970.41;4949388;28;114273;-81
2023/10/15 08:39:41;;;;;;;;;;;;;;;12.55;56.09;101968.47;4950824;28;114154;-82
2023/10/15 08:42:18;;;;;;;;;;;;;;;12.63;56.23;101987.66;4950159;28;125155;-81
2023/10/15 08:44:47;;;;;;;;;;;;;;;12.69;56.35;101991.03;4950039;28;124093;-82
2023/10/15 08:47:14;;;;;;;;;;;;;;;12.77;56.30;101994.28;4948787;28;115070;-81
2023/10/15 08:49:50;;;;;;;;;;;;;;;12.81;56.22;102001.25;4934049;28;114734;-82
2023/10/15 08:52:19;;;;;;;;;;;;;;;12.85;56.17;102013.50;4948258;28;124673;-82
2023/10/15 08:54:46;;;;;;;;;;;;;;;12.88;56.23;102012.50;4939468;28;123917;-81
2023/10/15 08:57:14;;;;;;;;;;;;;;;12.91;56.02;102023.03;4950386;28;114319;-82
2023/10/15 08:59:43;;;;;;;;;;;;;;;12.92;56.00;102028.31;4915967;28;112745;-81
2023/10/15 09:02:10;;;;;;;;;;;;;;;12.94;56.07;102033.56;4937795;28;123884;-81
2023/10/15 09:04:37;;;;;;;;;;;;;;;12.92;55.84;102036.28;4933376;28;123495;-82
2023/10/15 09:07:04;;;;;;;;;;;;;;;12.93;55.99;102026.50;4945474;28;115145;-81
2023/10/15 09:09:32;;;;;;;;;;;;;;;12.97;56.13;102029.00;4932901;28;115362;-81
2023/10/15 09:12:00;;;;;;;;;;;;;;;13.01;56.11;102025.28;4933305;28;124466;-82
2023/10/15 09:14:56;;;;;;;;;;;;;;;13.05;56.05;102032.25;4932563;28;123341;-81
2023/10/15 09:17:26;;;;;;;;;;;;;;;13.10;56.12;102033.88;4941545;28;115506;-81
2023/10/15 09:19:53;;;;;;;;;;;;;;;13.13;56.13;102031.09;4932010;28;115154;-81
2023/10/15 09:22:20;;;;;;;;;;;;;;;13.17;56.22;102035.41;4927956;28;124175;-81
2023/10/15 09:24:47;;;;;;;;;;;;;;;13.26;56.34;102040.38;4951379;28;123382;-81
2023/10/15 09:27:15;;;;;;;;;;;;;;;13.31;56.20;102043.75;4944241;28;115079;-81
2023/10/15 09:29:43;;;;;;;;;;;;;;;13.37;56.18;102048.88;4952206;28;112929;-81
2023/10/15 09:32:10;;;;;;;;;;;;;;;13.41;56.01;102045.16;4941844;28;124134;-81
2023/10/15 09:34:37;;;;;;;;;;;;;;;13.44;56.06;102050.34;4943915;28;124141;-81
2023/10/15 09:37:06;;;;;;;;;;;;;;;13.48;56.05;102044.91;4944438;28;115131;-82
2023/10/15 09:39:34;;;;;;;;;;;;;;;13.53;56.21;102058.94;4948566;28;113407;-81
2023/10/15 09:42:04;;;;;;;;;;;;;;;13.60;56.26;102057.78;4930971;28;124348;-80
2023/10/15 09:44:33;;;;;;;;;;;;;;;13.67;56.12;102061.91;4946037;28;124872;-81
2023/10/15 09:47:02;;;;;;;;;;;;;;;13.73;56.01;102067.03;4946918;28;114617;-80
2023/10/15 09:49:31;;;;;;;;;;;;;;;13.77;55.92;102073.97;4943745;28;113650;-80
2023/10/15 09:52:01;;;;;;;;;;;;;;;13.79;55.91;102080.09;4942067;28;126387;-82
2023/10/15 09:54:30;;;;;;;;;;;;;;;13.82;55.90;102077.31;4913309;28;122287;-82
2023/10/15 09:56:59;;;;;;;;;;;;;;;13.83;55.88;102087.03;4930101;28;115353;-81
2023/10/15 09:59:26;;;;;;;;;;;;;;;13.85;55.82;102086.13;4949345;28;114997;-81
2023/10/15 10:01:54;;;;;;;;;;;;;;;13.83;55.76;102084.38;4944645;28;125167;-81
2023/10/15 10:04:35;;;;;;;;;;;;;;;13.86;55.81;102088.69;4953968;28;123819;-81
2023/10/15 10:07:28;;;;;;;;;;;;;;;13.91;55.91;102088.53;4934555;28;114140;-81
2023/10/15 10:10:10;;;;;;;;;;;;;;;13.97;56.07;102091.81;4925688;28;113877;-80
2023/10/15 10:12:58;;;;;;;;;;;;;;;14.05;55.94;102102.16;4948453;28;124352;-80
2023/10/15 10:15:35;;;;;;;;;;;;;;;14.12;55.95;102101.00;4949559;28;124427;-82
2023/10/15 10:18:02;;;;;;;;;;;;;;;14.19;56.01;102106.97;4950438;28;114589;-81
2023/10/15 10:20:35;;;;;;;;;;;;;;;14.30;56.07;102115.38;4940951;28;113334;-81
2023/10/15 10:23:06;;;;;;;;;;;;;;;14.39;56.00;102120.34;4924307;28;123824;-80
2023/10/15 10:25:42;;;;;;;;;;;;;;;14.48;56.00;102111.09;4955093;28;123842;-84
2023/10/15 10:28:11;;;;;;;;;;;;;;;14.54;56.16;102115.31;4952078;28;115354;-86
2023/10/15 10:30:54;;;;;;;;;;;;;;;14.58;55.80;102120.50;4968462;28;114637;-81
2023/10/15 10:33:56;;;;;;;;;;;;;;;14.58;55.77;102123.16;4968928;28;125964;-84
2023/10/15 10:36:27;;;;;;;;;;;;;;;14.53;55.45;102138.44;4932789;28;124274;-81
2023/10/15 10:39:07;;;;;;;;;;;;;;;14.47;55.58;102138.69;4959210;28;114023;-82
2023/10/15 10:41:37;;;;;;;;;;;;;;;14.42;55.54;102135.34;4971550;28;113132;-83
2023/10/15 10:44:05;;;;;;;;;;;;;;;14.39;55.38;102132.78;4967973;28;123164;-81
2023/10/15 10:46:54;;;;;;;;;;;;;;;14.38;55.54;102123.06;4972816;28;124341;-81
2023/10/15 10:49:34;;;;;;;;;;;;;;;14.40;55.43;102131.88;4970370;28;114829;-84
2023/10/15 10:52:15;;;;;;;;;;;;;;;14.38;55.54;102139.91;4934514;28;113312;-80
2023/10/15 10:54:46;;;;;;;;;;;;;;;14.36;55.34;102135.59;4958126;28;123486;-81
2023/10/15 10:57:18;;;;;;;;;;;;;;;14.34;55.69;102134.78;4960837;28;122848;-81
2023/10/15 10:59:45;;;;;;;;;;;;;;;14.36;55.58;102130.25;4938431;28;114939;-81
2023/10/15 11:02:13;;;;;;;;;;;;;;;14.37;55.71;102132.88;4946296;28;114185;-81
2023/10/15 11:04:41;;;;;;;;;;;;;;;14.39;55.74;102127.44;4963684;28;124508;-80
2023/10/15 11:07:11;;;;;;;;;;;;;;;14.42;55.71;102130.00;4951506;28;123685;-82
2023/10/15 11:09:38;;;;;;;;;;;;;;;14.46;55.70;102126.28;4952004;28;114015;-84
2023/10/15 11:12:06;;;;;;;;;;;;;;;14.51;55.80;102118.97;4936978;28;113824;-81
2023/10/15 11:14:34;;;;;;;;;;;;;;;14.55;55.87;102120.56;4952606;28;123742;-81
2023/10/15 11:17:02;;;;;;;;;;;;;;;14.60;55.73;102118.63;4948550;28;124698;-82
2023/10/15 11:19:30;;;;;;;;;;;;;;;14.67;55.79;102123.69;4942146;28;113851;-82
2023/10/15 11:21:57;;;;;;;;;;;;;;;14.71;55.67;102119.97;4954980;28;114425;-83
2023/10/15 11:24:25;;;;;;;;;;;;;;;14.77;55.68;102130.41;4948844;28;123820;-82
2023/10/15 11:26:54;;;;;;;;;;;;;;;14.84;55.96;102131.84;4954185;28;124263;-82
2023/10/15 11:29:22;;;;;;;;;;;;;;;14.89;55.61;102118.34;4929690;28;115493;-81
2023/10/15 11:31:52;;;;;;;;;;;;;;;14.92;55.83;102131.56;4934622;28;113462;-82
2023/10/15 11:34:20;;;;;;;;;;;;;;;14.96;55.66;102134.00;4952980;28;123437;-82
2023/10/15 11:36:50;;;;;;;;;;;;;;;15.02;55.65;102134.69;4956056;28;123967;-81
2023/10/15 11:39:18;;;;;;;;;;;;;;;15.09;55.78;102128.16;4913791;28;114271;-82
2023/10/15 11:41:52;;;;;;;;;;;;;;;15.16;55.90;102132.28;4952854;28;114542;-81
2023/10/15 11:44:25;;;;;;;;;;;;;;;15.25;55.83;102131.88;4953348;28;124889;-82
2023/10/15 11:46:54;;;;;;;;;;;;;;;15.31;55.88;102136.97;4946090;28;124332;-82
2023/10/15 11:49:22;;;;;;;;;;;;;;;15.41;55.91;102136.53;4926482;28;113054;-81
2023/10/15 11:51:50;;;;;;;;;;;;;;;15.49;55.67;102142.41;4949219;28;112857;-82
2023/10/15 11:54:17;;;;;;;;;;;;;;;15.50;55.49;102142.34;4950595;28;123545;-82
2023/10/15 11:56:47;;;;;;;;;;;;;;;15.52;55.41;102131.56;4942425;28;125570;-81
2023/10/15 11:59:14;;;;;;;;;;;;;;;15.55;55.35;102136.78;4934970;28;114624;-83
2023/10/15 12:01:44;;;;;;;;;;;;;;;15.61;55.60;102133.81;4931138;28;114246;-82
2023/10/15 12:04:12;;;;;;;;;;;;;;;15.70;55.52;102127.22;4931063;28;125414;-82
2023/10/15 12:06:39;;;;;;;;;;;;;;;15.76;55.40;102132.28;4932664;28;125204;-85
2023/10/15 12:09:12;;;;;;;;;;;;;;;15.76;55.37;102127.84;4932489;28;114950;-82
2023/10/15 12:11:40;;;;;;;;;;;;;;;15.81;55.27;102129.41;4952446;28;113606;-84
2023/10/15 12:14:07;;;;;;;;;;;;;;;15.89;55.51;102137.94;4933493;28;123957;-82
2023/10/15 12:16:39;;;;;;;;;;;;;;;15.96;55.55;102123.34;4942928;28;125070;-82
2023/10/15 12:19:08;;;;;;;;;;;;;;;16.01;55.15;102121.34;4948361;28;114900;-83
2023/10/15 12:21:36;;;;;;;;;;;;;;;16.01;55.14;102126.69;4943756;28;113247;-84
2023/10/15 12:24:11;;;;;;;;;;;;;;;15.99;54.91;102133.03;4916796;28;125260;-81
2023/10/15 12:26:38;;;;;;;;;;;;;;;15.92;55.02;102143.16;4930196;28;124008;-81
2023/10/15 12:29:08;;;;;;;;;;;;;;;15.85;54.75;102157.72;4945063;28;115974;-81
2023/10/15 12:31:56;;;;;;;;;;;;;;;15.71;54.63;102177.88;4929851;28;115551;-81
2023/10/15 12:34:24;;;;;;;;;;;;;;;15.58;54.53;102187.38;4946728;28;124871;-81
2023/10/15 12:36:52;;;;;;;;;;;;;;;15.43;54.42;102209.44;4947830;28;125034;-80
2023/10/15 12:39:26;;;;;;;;;;;;;;;15.20;54.20;102200.63;4950200;28;114657;-79
2023/10/15 12:41:54;;;;;;;;;;;;;;;14.93;54.07;102179.47;4931534;28;114257;-79
2023/10/15 12:44:22;;;;;;;;;;;;;;;14.74;54.25;102173.19;4939420;28;123991;-80
2023/10/15 12:46:50;;;;;;;;;;;;;;;14.62;54.66;102163.00;4954609;28;124424;-79
2023/10/15 12:49:19;;;;;;;;;;;;;;;14.54;54.62;102161.50;4932400;28;113456;-79
2023/10/15 12:51:46;;;;;;;;;;;;;;;14.49;54.73;102163.50;4952996;28;115439;-79
2023/10/15 12:54:13;;;;;;;;;;;;;;;14.47;55.07;102157.34;4951009;28;125449;-78
2023/10/15 12:56:40;;;;;;;;;;;;;;;14.46;55.04;102152.94;4942637;28;124727;-78
2023/10/15 12:59:07;;;;;;;;;;;;;;;14.45;55.16;102156.56;4948787;28;114524;-79
2023/10/15 13:01:34;;;;;;;;;;;;;;;14.46;55.34;102162.75;4946959;28;113504;-79